Time;durP1;ratioP1;P1;durP2;ratioP2;P2;SDS_P1;SDS_P2;PMS_P1;PMS_P2;Temp;Humidity;BMP_temperature;BMP_pressure;BME280_temperature;BME280_humidity;BME280_pressure;Samples;Min_cycle;Max_cycle;Signal;HPM_P1;HPM_P2
2021/11/19 00:00:25;;;;;;;41.73;22.60;;;8.90;99.90;;;;;;5034491;28;20221;-66
2021/11/19 00:02:51;;;;;;;44.40;23.50;;;8.90;99.90;;;;;;5034207;28;20673;-65
2021/11/19 00:05:18;;;;;;;43.47;22.93;;;8.90;99.90;;;;;;5033788;28;20827;-66
2021/11/19 00:07:45;;;;;;;42.23;21.87;;;8.90;99.90;;;;;;5034280;28;20214;-65
2021/11/19 00:10:12;;;;;;;42.67;22.77;;;9.00;99.90;;;;;;5033879;28;20263;-66
2021/11/19 00:12:40;;;;;;;41.40;22.87;;;8.90;99.90;;;;;;5033874;28;20205;-66
2021/11/19 00:15:10;;;;;;;38.53;20.87;;;9.00;99.90;;;;;;5033731;28;20242;-66
2021/11/19 00:17:37;;;;;;;44.43;22.83;;;9.00;99.90;;;;;;5034072;28;20218;-66
2021/11/19 00:20:08;;;;;;;42.00;22.07;;;8.90;99.90;;;;;;5034288;28;20257;-66
2021/11/19 00:22:34;;;;;;;38.93;21.23;;;9.00;99.90;;;;;;5033865;28;20209;-65
2021/11/19 00:25:01;;;;;;;41.90;21.87;;;9.00;99.90;;;;;;5032837;28;20276;-67
2021/11/19 00:27:28;;;;;;;42.67;22.37;;;9.00;99.90;;;;;;5034111;28;20237;-66
2021/11/19 00:29:56;;;;;;;43.40;22.13;;;9.00;99.90;;;;;;5033941;28;20694;-66
2021/11/19 00:32:22;;;;;;;40.70;21.40;;;9.00;99.90;;;;;;5033837;28;20217;-66
2021/11/19 00:34:49;;;;;;;48.60;24.10;;;9.00;99.90;;;;;;5033642;28;20230;-65
2021/11/19 00:37:18;;;;;;;46.93;23.23;;;9.00;99.90;;;;;;5034536;28;20202;-65
2021/11/19 00:39:45;;;;;;;43.33;22.30;;;9.00;99.90;;;;;;5033995;28;20221;-65
2021/11/19 00:42:12;;;;;;;47.73;24.83;;;9.00;99.90;;;;;;5033815;28;20216;-65
2021/11/19 00:44:39;;;;;;;50.90;23.90;;;9.00;99.90;;;;;;5033273;28;20222;-65
2021/11/19 00:47:08;;;;;;;47.53;23.23;;;9.00;99.90;;;;;;5033545;28;20222;-66
2021/11/19 00:49:37;;;;;;;42.07;22.33;;;9.00;99.90;;;;;;5033534;28;20218;-65
2021/11/19 00:52:06;;;;;;;43.73;21.93;;;9.10;99.90;;;;;;5033217;28;20206;-66
2021/11/19 00:54:33;;;;;;;44.97;21.67;;;9.10;99.90;;;;;;5033327;28;20229;-66
2021/11/19 00:57:16;;;;;;;41.60;21.87;;;9.00;99.90;;;;;;5034265;28;20255;-66
2021/11/19 00:59:44;;;;;;;42.67;20.93;;;9.00;99.90;;;;;;5034255;28;20295;-66
2021/11/19 01:02:19;;;;;;;33.63;19.67;;;9.00;99.90;;;;;;5033554;28;20209;-66
2021/11/19 01:04:46;;;;;;;30.80;18.60;;;9.00;99.90;;;;;;5033588;28;20727;-66
2021/11/19 01:07:14;;;;;;;36.33;19.17;;;9.00;99.90;;;;;;5033796;28;20230;-66
2021/11/19 01:09:45;;;;;;;35.00;19.57;;;9.00;99.90;;;;;;5033159;28;20264;-65
2021/11/19 01:12:15;;;;;;;31.40;15.80;;;9.00;99.90;;;;;;5033212;28;20208;-65
2021/11/19 01:14:45;;;;;;;39.33;20.67;;;9.00;99.90;;;;;;5032385;28;20604;-65
2021/11/19 01:17:16;;;;;;;40.57;21.83;;;8.90;99.90;;;;;;5032846;28;20198;-65
2021/11/19 01:19:46;;;;;;;43.97;22.40;;;8.90;99.90;;;;;;5032971;28;20214;-65
2021/11/19 01:22:17;;;;;;;43.67;23.10;;;8.90;99.90;;;;;;5033244;28;20209;-65
2021/11/19 01:24:43;;;;;;;48.43;24.43;;;8.90;1.00;;;;;;5032332;28;20233;-65
2021/11/19 01:27:11;;;;;;;49.73;24.47;;;8.80;1.00;;;;;;5032654;28;20705;-65
2021/11/19 01:29:39;;;;;;;51.30;24.63;;;8.80;1.00;;;;;;5032556;28;20216;-65
2021/11/19 01:32:09;;;;;;;52.47;26.43;;;8.90;1.00;;;;;;5032681;28;20210;-65
2021/11/19 01:34:37;;;;;;;46.87;26.00;;;8.90;1.00;;;;;;5032469;28;20230;-66
2021/11/19 01:37:07;;;;;;;59.03;25.77;;;8.80;1.00;;;;;;5031774;28;20259;-65
2021/11/19 01:39:34;;;;;;;60.57;26.87;;;8.80;1.00;;;;;;5032487;28;20592;-65
2021/11/19 01:42:04;;;;;;;56.03;27.83;;;8.80;1.00;;;;;;5032436;28;20680;-65
2021/11/19 01:44:34;;;;;;;54.17;26.70;;;8.80;1.00;;;;;;5032438;28;20226;-66
2021/11/19 01:47:04;;;;;;;53.07;26.87;;;8.80;1.00;;;;;;5032480;28;20279;-65
2021/11/19 01:49:31;;;;;;;65.40;28.97;;;8.80;1.00;;;;;;5032377;28;20214;-65
2021/11/19 01:52:02;;;;;;;65.67;28.67;;;8.80;1.00;;;;;;5032499;28;20205;-66
2021/11/19 01:54:33;;;;;;;62.67;29.10;;;8.80;1.00;;;;;;5032123;28;20229;-66
2021/11/19 01:57:08;;;;;;;64.33;29.63;;;8.80;1.00;;;;;;5032475;28;20206;-66
2021/11/19 01:59:40;;;;;;;60.33;28.07;;;8.90;1.00;;;;;;5032362;28;20278;-65
2021/11/19 02:02:10;;;;;;;62.43;29.50;;;8.90;1.00;;;;;;5032304;28;20213;-65
2021/11/19 02:04:40;;;;;;;59.47;28.70;;;8.90;1.00;;;;;;5031719;28;20245;-66
2021/11/19 02:07:12;;;;;;;64.80;27.13;;;8.80;1.00;;;;;;5031869;28;20646;-65
2021/11/19 02:09:46;;;;;;;59.80;27.27;;;8.90;1.00;;;;;;5032316;28;20206;-66
2021/11/19 02:12:23;;;;;;;63.43;28.23;;;8.90;1.00;;;;;;5032127;28;20214;-65
2021/11/19 02:15:00;;;;;;;67.47;26.97;;;8.90;1.00;;;;;;5031425;28;20787;-66
2021/11/19 02:17:27;;;;;;;62.57;27.07;;;8.90;1.00;;;;;;5031823;28;20297;-65
2021/11/19 02:19:57;;;;;;;66.13;27.73;;;8.90;1.00;;;;;;5031881;28;20649;-66
2021/11/19 02:22:28;;;;;;;62.30;28.63;;;8.90;1.00;;;;;;5031761;28;20210;-66
2021/11/19 02:24:58;;;;;;;63.23;29.83;;;8.90;1.00;;;;;;5031479;28;20720;-66
2021/11/19 02:27:28;;;;;;;66.93;28.13;;;8.90;1.00;;;;;;5031655;28;20775;-65
2021/11/19 02:29:57;;;;;;;58.30;26.43;;;8.90;1.00;;;;;;5031828;28;20263;-65
2021/11/19 02:32:26;;;;;;;63.87;28.97;;;8.90;1.00;;;;;;5031614;28;20210;-65
2021/11/19 02:34:53;;;;;;;57.67;28.37;;;8.90;1.00;;;;;;5031435;28;20608;-65
2021/11/19 02:37:44;;;;;;;60.90;28.97;;;9.00;1.00;;;;;;5031822;28;20203;-66
2021/11/19 02:40:14;;;;;;;70.17;29.10;;;8.90;1.00;;;;;;5031604;28;20263;-65
2021/11/19 02:42:44;;;;;;;62.70;28.23;;;8.90;1.00;;;;;;5032121;28;20197;-66
2021/11/19 02:45:14;;;;;;;66.47;28.97;;;8.90;1.00;;;;;;5031173;28;20720;-65
2021/11/19 02:47:41;;;;;;;61.03;27.93;;;9.00;1.00;;;;;;5033154;28;20652;-66
2021/11/19 02:50:09;;;;;;;52.87;24.00;;;8.90;1.00;;;;;;5035660;28;20329;-66
2021/11/19 02:52:41;;;;;;;58.43;27.57;;;9.00;1.00;;;;;;5035636;28;20210;-66
2021/11/19 02:55:12;;;;;;;57.27;27.73;;;8.90;1.00;;;;;;5035119;28;20771;-65
2021/11/19 02:57:39;;;;;;;64.07;28.70;;;9.00;1.00;;;;;;5035605;28;20209;-66
2021/11/19 03:00:11;;;;;;;57.47;27.07;;;9.00;1.00;;;;;;5035596;28;20210;-63
2021/11/19 03:02:37;;;;;;;60.23;28.30;;;9.00;1.00;;;;;;5035488;28;20217;-63
2021/11/19 03:05:09;;;;;;;64.33;28.57;;;8.90;1.00;;;;;;5034990;28;20648;-63
2021/11/19 03:07:38;;;;;;;66.60;29.20;;;9.00;1.00;;;;;;5035089;28;20665;-63
2021/11/19 03:10:09;;;;;;;66.07;28.10;;;9.00;1.00;;;;;;5035413;28;20264;-63
2021/11/19 03:12:36;;;;;;;62.33;28.17;;;9.00;1.00;;;;;;5035438;28;20210;-63
2021/11/19 03:15:09;;;;;;;57.47;27.80;;;9.00;1.00;;;;;;5034650;28;20234;-62
2021/11/19 03:17:36;;;;;;;57.93;28.00;;;9.00;1.00;;;;;;5035161;28;20207;-64
2021/11/19 03:20:04;;;;;;;61.70;28.53;;;9.00;1.00;;;;;;5034929;28;20337;-64
2021/11/19 03:22:31;;;;;;;61.87;27.90;;;9.00;1.00;;;;;;5035160;28;20206;-64
2021/11/19 03:25:00;;;;;;;58.40;28.13;;;9.10;1.00;;;;;;5034880;28;20261;-64
2021/11/19 03:27:29;;;;;;;56.50;25.53;;;9.10;1.00;;;;;;5035040;28;20229;-64
2021/11/19 03:29:57;;;;;;;56.63;26.73;;;9.20;1.00;;;;;;5034916;28;20214;-64
2021/11/19 03:32:30;;;;;;;58.97;26.73;;;9.20;1.00;;;;;;5034890;28;20221;-64
2021/11/19 03:34:58;;;;;;;58.70;27.00;;;9.20;1.00;;;;;;5034685;28;20230;-64
2021/11/19 03:37:26;;;;;;;53.07;26.10;;;9.10;1.00;;;;;;5034803;28;20213;-64
2021/11/19 03:39:53;;;;;;;61.13;26.17;;;9.20;1.00;;;;;;5034927;28;20260;-64
2021/11/19 03:42:23;;;;;;;52.30;26.17;;;9.20;1.00;;;;;;5034785;28;20631;-64
2021/11/19 03:44:55;;;;;;;57.30;27.67;;;9.20;1.00;;;;;;5034290;28;20280;-64
2021/11/19 03:47:25;;;;;;;50.97;25.07;;;9.20;1.00;;;;;;5034309;28;20244;-64
2021/11/19 03:49:54;;;;;;;58.03;25.63;;;9.30;1.00;;;;;;5034983;28;20739;-64
2021/11/19 03:52:23;;;;;;;49.87;25.97;;;9.30;1.00;;;;;;5034580;28;20210;-64
2021/11/19 03:54:53;;;;;;;51.53;25.93;;;9.30;1.00;;;;;;5034202;28;20246;-64
2021/11/19 03:57:23;;;;;;;54.83;25.13;;;9.30;1.00;;;;;;5034514;28;20669;-64
2021/11/19 03:59:50;;;;;;;48.83;25.00;;;9.30;1.00;;;;;;5033711;28;20229;-64
2021/11/19 04:02:19;;;;;;;59.77;27.37;;;9.30;1.00;;;;;;5034602;28;20376;-64
2021/11/19 04:04:46;;;;;;;56.03;24.80;;;9.30;1.00;;;;;;5033917;28;20227;-64
2021/11/19 04:07:15;;;;;;;49.70;24.03;;;9.40;1.00;;;;;;5034219;28;20263;-64
2021/11/19 04:09:44;;;;;;;44.30;23.53;;;9.40;1.00;;;;;;5034248;28;20206;-64
2021/11/19 04:12:12;;;;;;;52.50;23.83;;;9.40;1.00;;;;;;5033978;28;20208;-64
2021/11/19 04:14:40;;;;;;;48.10;24.63;;;9.40;1.00;;;;;;5033542;28;20712;-64
2021/11/19 04:17:07;;;;;;;54.40;25.33;;;9.40;1.00;;;;;;5034189;28;20252;-64
2021/11/19 04:19:35;;;;;;;50.17;24.33;;;9.40;1.00;;;;;;5034015;28;20202;-64
2021/11/19 04:22:05;;;;;;;49.00;24.77;;;9.40;1.00;;;;;;5034073;28;20632;-64
2021/11/19 04:24:35;;;;;;;53.00;24.77;;;9.30;1.00;;;;;;5033533;28;20376;-64
2021/11/19 04:27:02;;;;;;;50.67;23.67;;;9.40;1.00;;;;;;5034379;28;20629;-65
2021/11/19 04:29:29;;;;;;;55.67;26.37;;;9.40;1.00;;;;;;5034293;28;20245;-64
2021/11/19 04:31:58;;;;;;;51.13;24.40;;;9.30;1.00;;;;;;5033866;28;20217;-64
2021/11/19 04:34:25;;;;;;;51.60;24.37;;;9.30;1.00;;;;;;5033446;28;20879;-64
2021/11/19 04:36:52;;;;;;;52.83;24.47;;;9.30;1.00;;;;;;5033979;28;20248;-65
2021/11/19 04:39:19;;;;;;;52.77;24.83;;;9.30;1.00;;;;;;5033392;28;20207;-64
2021/11/19 04:41:46;;;;;;;52.17;24.73;;;9.30;1.00;;;;;;5033779;28;20210;-65
2021/11/19 04:44:13;;;;;;;49.90;24.23;;;9.30;1.00;;;;;;5033518;28;20234;-66
2021/11/19 04:46:40;;;;;;;50.20;23.77;;;9.30;1.00;;;;;;5033400;28;20225;-65
2021/11/19 04:49:09;;;;;;;47.47;22.80;;;9.40;1.00;;;;;;5033839;28;20202;-65
2021/11/19 04:51:38;;;;;;;51.67;24.27;;;9.30;1.00;;;;;;5033313;28;20260;-65
2021/11/19 04:54:06;;;;;;;51.73;24.20;;;9.30;1.00;;;;;;5033542;28;20591;-65
2021/11/19 04:56:34;;;;;;;54.33;24.63;;;9.40;1.00;;;;;;5033025;28;20563;-65
2021/11/19 04:59:00;;;;;;;48.30;23.20;;;9.40;1.00;;;;;;5033265;28;20211;-66
2021/11/19 05:01:30;;;;;;;55.80;23.13;;;9.30;1.00;;;;;;5033208;28;20344;-66
2021/11/19 05:03:57;;;;;;;47.60;23.70;;;9.30;1.00;;;;;;5033173;28;20226;-65
2021/11/19 05:06:25;;;;;;;52.80;23.47;;;9.30;1.00;;;;;;5032598;28;20234;-66
2021/11/19 05:08:52;;;;;;;47.00;22.87;;;9.30;1.00;;;;;;5033230;28;20637;-65
2021/11/19 05:11:30;;;;;;;48.83;22.57;;;9.40;1.00;;;;;;5033225;28;20206;-65
2021/11/19 05:13:59;;;;;;;46.30;21.70;;;9.50;1.00;;;;;;5033087;28;20230;-65
2021/11/19 05:16:27;;;;;;;44.93;22.33;;;9.40;1.00;;;;;;5031454;28;20210;-65
2021/11/19 05:18:53;;;;;;;50.77;22.87;;;9.40;1.00;;;;;;5011893;28;20210;-65
2021/11/19 05:21:21;;;;;;;47.40;23.13;;;9.40;1.00;;;;;;5013209;28;20211;-65
2021/11/19 05:23:50;;;;;;;55.20;23.90;;;9.30;1.00;;;;;;5013331;28;20235;-65
2021/11/19 05:26:17;;;;;;;51.33;23.63;;;9.40;1.00;;;;;;5013127;28;20286;-65
2021/11/19 05:28:45;;;;;;;46.50;21.87;;;9.30;1.00;;;;;;5013063;28;20296;-64
2021/11/19 05:31:13;;;;;;;51.63;22.70;;;9.40;1.00;;;;;;5012690;28;20218;-65
2021/11/19 05:33:41;;;;;;;49.27;23.47;;;9.40;1.00;;;;;;5012959;28;20883;-65
2021/11/19 05:36:09;;;;;;;52.43;24.27;;;9.40;1.00;;;;;;5012688;28;20633;-63
2021/11/19 05:38:37;;;;;;;48.10;23.43;;;9.30;1.00;;;;;;5031110;28;20213;-64
2021/11/19 05:41:06;;;;;;;49.30;22.67;;;9.40;1.00;;;;;;5032103;28;20206;-64
2021/11/19 05:43:34;;;;;;;50.93;23.07;;;9.40;1.00;;;;;;5032583;28;20209;-65
2021/11/19 05:46:01;;;;;;;51.13;23.23;;;9.40;1.00;;;;;;5031972;28;20210;-64
2021/11/19 05:48:28;;;;;;;48.57;21.77;;;9.40;1.00;;;;;;5032015;28;20234;-64
2021/11/19 05:50:55;;;;;;;53.37;23.57;;;9.40;1.00;;;;;;5032107;28;20190;-64
2021/11/19 05:53:21;;;;;;;51.63;23.57;;;9.40;1.00;;;;;;5031907;28;20214;-64
2021/11/19 05:55:49;;;;;;;54.00;23.50;;;9.40;1.00;;;;;;5031824;28;20288;-64
2021/11/19 05:58:18;;;;;;;47.80;23.33;;;9.40;1.00;;;;;;5031920;28;20198;-66
2021/11/19 06:00:48;;;;;;;50.67;23.03;;;9.40;1.00;;;;;;5031976;28;20680;-64
2021/11/19 06:03:15;;;;;;;51.27;24.07;;;9.40;1.00;;;;;;5031951;28;20202;-64
2021/11/19 06:05:41;;;;;;;47.30;22.77;;;9.40;1.00;;;;;;5031899;28;20230;-64
2021/11/19 06:08:08;;;;;;;56.37;24.23;;;9.40;1.00;;;;;;5032046;28;20253;-64
2021/11/19 06:10:37;;;;;;;58.43;25.87;;;9.40;1.00;;;;;;5032281;28;20236;-64
2021/11/19 06:13:07;;;;;;;55.63;25.37;;;9.40;1.00;;;;;;5031806;28;20211;-64
2021/11/19 06:15:39;;;;;;;55.50;24.43;;;9.40;1.00;;;;;;5031544;28;20234;-64
2021/11/19 06:18:10;;;;;;;57.63;25.60;;;9.40;1.00;;;;;;5031796;28;20209;-64
2021/11/19 06:20:44;;;;;;;58.77;24.63;;;9.40;1.80;;;;;;5031956;28;20226;-64
2021/11/19 06:23:14;;;;;;;52.93;25.53;;;9.50;2.80;;;;;;5031235;28;20703;-64
2021/11/19 06:25:43;;;;;;;58.23;26.20;;;9.40;4.90;;;;;;5031163;28;20916;-65
2021/11/19 06:28:13;;;;;;;55.97;25.60;;;9.40;5.20;;;;;;5024057;28;20231;-62
2021/11/19 06:30:42;;;;;;;57.73;26.47;;;9.50;9.20;;;;;;5008818;28;20576;-62
2021/11/19 06:33:09;;;;;;;54.53;25.27;;;9.50;4.70;;;;;;5011333;28;20211;-62
2021/11/19 06:35:36;;;;;;;58.63;26.20;;;9.50;7.90;;;;;;5024918;28;20253;-62
2021/11/19 06:38:04;;;;;;;52.77;26.10;;;9.50;8.90;;;;;;5030798;28;20214;-64
2021/11/19 06:40:35;;;;;;;60.53;26.70;;;9.50;10.40;;;;;;5031209;28;20263;-65
2021/11/19 06:43:03;;;;;;;54.43;26.13;;;9.50;9.60;;;;;;5031264;28;20234;-65
2021/11/19 06:45:30;;;;;;;56.53;26.37;;;9.60;12.60;;;;;;5030749;28;20573;-62
2021/11/19 06:47:59;;;;;;;62.40;25.93;;;9.60;8.00;;;;;;5030562;28;20222;-62
2021/11/19 06:50:29;;;;;;;60.00;26.33;;;9.50;7.70;;;;;;5030456;28;20240;-63
2021/11/19 06:52:56;;;;;;;56.17;25.93;;;9.60;8.90;;;;;;5023573;28;20220;-63
2021/11/19 06:55:24;;;;;;;63.70;26.77;;;9.60;11.20;;;;;;5011121;28;20227;-62
2021/11/19 06:57:50;;;;;;;56.97;27.10;;;9.60;10.20;;;;;;5010961;28;20203;-62
2021/11/19 07:00:21;;;;;;;60.97;25.53;;;9.60;9.90;;;;;;5010840;28;20229;-61
2021/11/19 07:02:48;;;;;;;56.97;27.17;;;9.60;13.50;;;;;;5010951;28;20207;-63
2021/11/19 07:05:17;;;;;;;61.80;26.53;;;9.60;14.00;;;;;;5010685;28;20309;-63
2021/11/19 07:07:44;;;;;;;58.87;26.67;;;9.60;15.00;;;;;;5010780;28;20257;-64
2021/11/19 07:10:13;;;;;;;59.70;26.00;;;9.60;17.60;;;;;;5010572;28;20214;-62
2021/11/19 07:12:40;;;;;;;59.43;26.50;;;9.70;17.70;;;;;;5011152;28;20211;-62
2021/11/19 07:15:10;;;;;;;53.10;24.90;;;9.70;18.00;;;;;;5010555;28;20241;-61
2021/11/19 07:17:37;;;;;;;56.67;25.73;;;9.70;14.20;;;;;;5011125;28;20214;-65
2021/11/19 07:20:06;;;;;;;57.30;26.33;;;9.70;15.10;;;;;;5010684;28;20277;-64
2021/11/19 07:22:34;;;;;;;61.47;24.83;;;9.70;9.90;;;;;;5011093;28;20222;-63
2021/11/19 07:25:01;;;;;;;57.37;25.17;;;9.60;12.00;;;;;;5009803;28;20227;-65
2021/11/19 07:27:28;;;;;;;58.00;24.47;;;9.70;16.60;;;;;;5010444;28;20241;-63
2021/11/19 07:29:55;;;;;;;60.17;26.23;;;9.70;18.70;;;;;;5010498;28;20298;-61
2021/11/19 07:32:22;;;;;;;57.17;25.83;;;9.70;19.80;;;;;;5010762;28;20207;-60
2021/11/19 07:34:48;;;;;;;62.90;26.97;;;9.70;17.80;;;;;;5012368;28;20235;-60
2021/11/19 07:37:16;;;;;;;62.07;26.27;;;9.70;15.30;;;;;;5014835;28;20217;-60
2021/11/19 07:39:44;;;;;;;53.83;24.60;;;9.70;24.30;;;;;;5013740;28;20302;-65
2021/11/19 07:42:10;;;;;;;60.60;27.07;;;9.80;24.00;;;;;;5014548;28;20583;-64
2021/11/19 07:44:37;;;;;;;57.73;27.03;;;9.70;22.40;;;;;;5013440;28;20219;-64
2021/11/19 07:47:04;;;;;;;64.80;28.90;;;9.80;24.40;;;;;;5014305;28;20203;-64
2021/11/19 07:49:31;;;;;;;57.67;26.03;;;9.70;24.10;;;;;;5013964;28;20284;-64
2021/11/19 07:51:58;;;;;;;56.07;24.97;;;9.70;32.50;;;;;;5014204;28;20335;-64
2021/11/19 07:54:24;;;;;;;58.43;24.90;;;9.70;36.60;;;;;;5014072;28;20642;-65
2021/11/19 07:56:52;;;;;;;61.03;25.63;;;9.70;42.00;;;;;;5013741;28;20257;-65
2021/11/19 07:59:22;;;;;;;55.93;24.73;;;9.70;43.90;;;;;;5013922;28;20207;-61
2021/11/19 08:01:49;;;;;;;54.30;24.27;;;9.80;53.20;;;;;;5013996;28;20207;-61
2021/11/19 08:04:17;;;;;;;54.60;24.10;;;9.80;55.90;;;;;;5014409;28;20285;-61
2021/11/19 08:06:44;;;;;;;55.77;23.67;;;9.80;60.30;;;;;;5013676;28;20211;-61
2021/11/19 08:09:11;;;;;;;51.63;23.73;;;9.80;66.90;;;;;;5013615;28;20292;-60
2021/11/19 08:11:39;;;;;;;49.47;22.47;;;9.90;70.60;;;;;;5013641;28;20203;-61
2021/11/19 08:14:07;;;;;;;49.87;21.63;;;9.90;67.70;;;;;;5013879;28;20239;-59
2021/11/19 08:16:42;;;;;;;47.87;22.30;;;9.90;66.40;;;;;;5013390;28;20217;-61
2021/11/19 08:19:25;;;;;;;41.57;21.13;;;9.90;56.70;;;;;;5013501;28;20280;-64
2021/11/19 08:21:53;;;;;;;44.33;19.47;;;10.00;45.90;;;;;;5013393;28;20215;-63
2021/11/19 08:24:21;;;;;;;40.63;20.37;;;10.00;34.00;;;;;;5013047;28;20274;-64
2021/11/19 08:26:51;;;;;;;40.17;19.57;;;10.00;20.30;;;;;;5013363;28;20207;-63
2021/11/19 08:29:22;;;;;;;37.00;18.37;;;10.00;14.30;;;;;;5013367;28;20230;-61
2021/11/19 08:31:50;;;;;;;40.70;19.87;;;9.90;2.70;;;;;;5013282;28;20203;-65
2021/11/19 08:34:17;;;;;;;36.63;19.40;;;10.00;1.00;;;;;;5013419;28;20604;-66
2021/11/19 08:36:45;;;;;;;39.33;20.17;;;10.00;1.00;;;;;;5012740;28;20688;-66
2021/11/19 08:39:15;;;;;;;42.00;19.80;;;9.90;1.00;;;;;;5013431;28;20211;-65
2021/11/19 08:41:42;;;;;;;42.07;20.30;;;9.90;1.00;;;;;;5013152;28;20207;-65
2021/11/19 08:44:10;;;;;;;37.40;18.67;;;9.80;1.00;;;;;;5013234;28;20222;-63
2021/11/19 08:46:43;;;;;;;40.70;20.27;;;9.90;1.00;;;;;;5012495;28;20249;-62
2021/11/19 08:49:13;;;;;;;41.60;19.53;;;9.90;1.00;;;;;;5012601;28;20227;-62
2021/11/19 08:51:40;;;;;;;41.03;20.17;;;9.90;1.00;;;;;;5013038;28;20227;-63
2021/11/19 08:54:11;;;;;;;42.17;19.43;;;9.90;1.00;;;;;;5013072;28;20244;-62
2021/11/19 08:56:41;;;;;;;41.87;19.83;;;9.80;1.00;;;;;;5012945;28;20206;-63
2021/11/19 08:59:10;;;;;;;40.10;19.60;;;9.90;10.80;;;;;;5012888;28;20234;-63
2021/11/19 09:01:43;;;;;;;39.07;19.40;;;9.90;1.70;;;;;;5012598;28;20246;-65
2021/11/19 09:04:10;;;;;;;39.13;19.70;;;9.90;1.00;;;;;;5013524;28;20234;-63
2021/11/19 09:06:37;;;;;;;42.57;19.00;;;9.90;1.00;;;;;;5012708;28;20211;-64
2021/11/19 09:09:05;;;;;;;39.03;19.83;;;9.90;1.00;;;;;;5012308;28;20704;-62
2021/11/19 09:11:33;;;;;;;35.60;18.60;;;9.90;1.00;;;;;;5012181;28;20218;-63
2021/11/19 09:14:01;;;;;;;38.93;20.43;;;9.90;1.00;;;;;;5012759;28;20235;-63
2021/11/19 09:16:30;;;;;;;39.40;19.47;;;9.90;1.00;;;;;;5012098;28;20223;-63
2021/11/19 09:19:17;;;;;;;38.90;18.03;;;9.90;1.00;;;;;;5012551;28;20203;-63
2021/11/19 09:21:47;;;;;;;35.90;17.50;;;10.00;1.00;;;;;;5012346;28;20569;-65
2021/11/19 09:24:17;;;;;;;40.70;19.93;;;10.00;1.00;;;;;;5012494;28;20231;-62
2021/11/19 09:26:47;;;;;;;39.73;20.80;;;10.00;1.00;;;;;;5011866;28;20724;-63
2021/11/19 09:29:16;;;;;;;38.97;20.37;;;10.00;1.00;;;;;;5012114;28;20698;-63
2021/11/19 09:31:44;;;;;;;41.83;21.20;;;10.10;1.00;;;;;;5012307;28;20213;-62
2021/11/19 09:34:12;;;;;;;39.63;20.13;;;10.10;1.00;;;;;;5012583;28;20226;-64
2021/11/19 09:36:40;;;;;;;36.50;20.00;;;10.10;1.00;;;;;;5012002;28;20211;-61
2021/11/19 09:39:09;;;;;;;36.80;20.17;;;10.10;1.00;;;;;;5012008;28;20214;-59
2021/11/19 09:41:57;;;;;;;42.07;20.63;;;10.10;1.00;;;;;;5011978;28;20215;-62
2021/11/19 09:44:57;;;;;;;41.57;21.53;;;10.20;1.00;;;;;;5012091;28;20235;-60
2021/11/19 09:48:07;;;;;;;38.60;19.80;;;10.20;1.00;;;;;;5011644;28;20215;-62
2021/11/19 09:51:13;;;;;;;38.67;19.90;;;10.20;1.00;;;;;;5011524;28;20215;-61
2021/11/19 09:54:28;;;;;;;40.30;21.80;;;10.20;1.00;;;;;;5011979;28;20234;-59
2021/11/19 09:57:22;;;;;;;39.23;19.83;;;10.20;1.00;;;;;;5011096;28;20218;-62
2021/11/19 09:59:53;;;;;;;44.27;22.97;;;10.20;1.00;;;;;;5012135;28;20199;-61
2021/11/19 10:02:50;;;;;;;45.23;22.77;;;10.20;1.00;;;;;;5011307;28;20579;-62
2021/11/19 10:05:29;;;;;;;42.23;22.07;;;10.20;1.00;;;;;;4925559;28;20238;-59
2021/11/19 10:08:07;;;;;;;42.43;23.57;;;10.30;1.00;;;;;;5011761;28;20638;-61
2021/11/19 10:10:47;;;;;;;46.40;26.63;;;10.30;1.00;;;;;;5010816;28;20588;-67
2021/11/19 10:13:25;;;;;;;54.97;27.20;;;10.30;1.00;;;;;;5012035;28;20213;-66
2021/11/19 10:16:05;;;;;;;51.77;26.17;;;10.30;1.00;;;;;;5011358;28;20617;-64
2021/11/19 10:18:39;;;;;;;51.03;26.73;;;10.30;1.00;;;;;;5011732;28;20206;-64
2021/11/19 10:21:09;;;;;;;51.77;27.13;;;10.30;1.00;;;;;;5011107;28;20195;-63
2021/11/19 10:23:41;;;;;;;55.30;27.37;;;10.30;1.00;;;;;;5011510;28;20642;-63
2021/11/19 10:26:20;;;;;;;58.83;29.40;;;10.30;1.00;;;;;;5011453;28;20215;-65
2021/11/19 10:28:54;;;;;;;62.87;28.67;;;10.30;1.00;;;;;;5011836;28;20218;-62
2021/11/19 10:31:23;;;;;;;61.20;28.40;;;10.30;1.00;;;;;;5010595;28;20215;-62
2021/11/19 10:34:05;;;;;;;62.80;30.00;;;10.30;1.00;;;;;;5011671;28;20264;-63
2021/11/19 10:36:39;;;;;;;59.37;27.97;;;10.40;1.00;;;;;;5011378;28;20199;-66
2021/11/19 10:39:41;;;;;;;62.03;29.07;;;10.30;1.00;;;;;;5010927;28;20673;-67
2021/11/19 10:42:42;;;;;;;58.67;28.87;;;10.30;1.00;;;;;;5011105;28;20203;-67
2021/11/19 10:45:35;;;;;;;54.10;25.97;;;10.30;1.00;;;;;;5011152;28;20609;-65
2021/11/19 10:48:35;;;;;;;58.97;28.30;;;10.30;1.00;;;;;;5011141;28;20215;-67
2021/11/19 10:51:32;;;;;;;53.33;28.73;;;10.30;1.00;;;;;;4969324;28;20215;-65
2021/11/19 10:54:26;;;;;;;57.07;26.33;;;10.30;1.00;;;;;;5011533;28;20580;-65
2021/11/19 10:56:59;;;;;;;56.13;27.97;;;10.30;1.00;;;;;;5011255;28;20207;-64
2021/11/19 10:59:38;;;;;;;63.40;30.30;;;10.40;1.00;;;;;;5011127;28;20210;-70
2021/11/19 11:02:37;;;;;;;59.77;28.17;;;10.60;1.00;;;;;;5010445;28;20207;-64
2021/11/19 11:05:18;;;;;;;53.20;27.73;;;10.60;1.00;;;;;;5010968;28;20234;-64
2021/11/19 11:08:04;;;;;;;55.50;30.07;;;10.70;1.00;;;;;;5011113;28;20211;-65
2021/11/19 11:10:34;;;;;;;58.47;26.13;;;10.70;99.90;;;;;;5014339;28;20223;-64
2021/11/19 11:13:01;;;;;;;58.03;29.27;;;10.60;99.90;;;;;;5014411;28;20210;-64
2021/11/19 11:15:34;;;;;;;54.73;28.60;;;10.60;99.90;;;;;;5014650;28;20231;-63
2021/11/19 11:18:17;;;;;;;50.43;27.77;;;10.60;99.90;;;;;;5015661;28;20246;-63
2021/11/19 11:20:56;;;;;;;62.30;29.63;;;10.60;99.90;;;;;;5014143;28;20640;-65
2021/11/19 11:23:28;;;;;;;49.10;27.27;;;10.60;99.90;;;;;;5014335;28;20210;-66
2021/11/19 11:26:00;;;;;;;59.20;28.43;;;10.60;99.90;;;;;;5014624;28;20211;-65
2021/11/19 11:28:43;;;;;;;58.07;29.67;;;10.60;99.90;;;;;;5014966;28;20209;-63
2021/11/19 11:31:45;;;;;;;58.83;29.90;;;10.50;99.90;;;;;;5019380;28;20248;-64
2021/11/19 11:34:24;;;;;;;58.97;30.30;;;10.50;99.90;;;;;;5034485;28;20724;-64
2021/11/19 11:37:05;;;;;;;58.43;30.13;;;10.60;99.90;;;;;;5034089;28;20446;-63
2021/11/19 11:39:39;;;;;;;55.57;28.00;;;10.60;99.90;;;;;;5034040;28;20199;-64
2021/11/19 11:42:13;;;;;;;51.70;28.40;;;10.60;99.90;;;;;;5033593;28;20220;-66
2021/11/19 11:44:41;;;;;;;55.77;28.30;;;10.60;99.90;;;;;;5034359;28;20294;-66
2021/11/19 11:47:14;;;;;;;60.70;30.87;;;10.50;99.90;;;;;;5034255;28;20214;-66
2021/11/19 11:49:48;;;;;;;58.13;28.77;;;10.60;99.90;;;;;;5019039;28;20665;-63
2021/11/19 11:52:52;;;;;;;57.53;30.17;;;10.60;99.90;;;;;;5013668;28;20207;-61
2021/11/19 11:55:28;;;;;;;56.13;29.77;;;10.60;99.90;;;;;;5013834;28;20231;-61
2021/11/19 11:58:07;;;;;;;54.10;27.70;;;10.70;99.90;;;;;;5014192;28;20213;-63
2021/11/19 12:00:40;;;;;;;57.20;28.83;;;10.60;99.90;;;;;;5013513;28;20555;-63
2021/11/19 12:03:24;;;;;;;60.13;31.17;;;10.60;99.90;;;;;;5013642;28;20214;-67
2021/11/19 12:05:54;;;;;;;59.63;30.53;;;10.60;99.90;;;;;;5013735;28;20234;-65
2021/11/19 12:08:41;;;;;;;60.33;31.20;;;10.70;99.90;;;;;;5013429;28;20243;-64
2021/11/19 12:11:44;;;;;;;57.60;29.13;;;10.70;99.90;;;;;;5013208;28;20694;-63
2021/11/19 12:14:25;;;;;;;51.30;28.00;;;10.70;99.90;;;;;;5014733;28;20235;-64
2021/11/19 12:17:00;;;;;;;53.73;28.67;;;10.70;99.90;;;;;;5013680;28;20456;-64
2021/11/19 12:19:35;;;;;;;53.80;30.10;;;10.80;99.90;;;;;;5013247;28;20306;-64
2021/11/19 12:22:07;;;;;;;53.83;28.33;;;10.80;99.90;;;;;;5012968;28;20307;-65
2021/11/19 12:24:36;;;;;;;54.17;28.90;;;10.80;99.90;;;;;;5013421;28;20286;-66
2021/11/19 12:27:26;;;;;;;46.73;24.63;;;10.70;91.70;;;;;;5013606;28;20217;-65
2021/11/19 12:29:58;;;;;;;53.17;28.77;;;10.70;93.80;;;;;;5013305;28;20223;-66
2021/11/19 12:32:30;;;;;;;51.80;28.80;;;10.70;99.90;;;;;;5015289;28;20293;-64
2021/11/19 12:35:11;;;;;;;52.50;27.30;;;10.80;51.60;;;;;;5034009;28;20222;-64
2021/11/19 12:37:46;;;;;;;44.93;26.43;;;10.70;37.50;;;;;;5034756;28;20221;-65
2021/11/19 12:40:21;;;;;;;48.17;26.80;;;10.80;13.20;;;;;;5032723;28;20206;-64
2021/11/19 12:42:55;;;;;;;51.10;27.73;;;10.80;22.10;;;;;;5032828;28;20201;-64
2021/11/19 12:45:25;;;;;;;52.97;29.07;;;10.80;23.30;;;;;;5032981;28;20284;-65
2021/11/19 12:48:30;;;;;;;47.33;27.73;;;10.80;1.00;;;;;;5032862;28;20260;-66
2021/11/19 12:51:16;;;;;;;47.33;28.73;;;10.90;1.00;;;;;;5032060;28;20230;-64
2021/11/19 12:54:07;;;;;;;47.03;26.53;;;10.90;1.00;;;;;;5032608;28;20210;-63
2021/11/19 12:56:57;;;;;;;48.40;27.67;;;10.90;1.00;;;;;;5032394;28;20206;-64
2021/11/19 12:59:44;;;;;;;48.20;27.90;;;10.90;1.00;;;;;;5031944;28;20213;-64
2021/11/19 13:02:20;;;;;;;48.47;28.77;;;10.90;1.00;;;;;;5032163;28;20203;-64
2021/11/19 13:05:00;;;;;;;43.90;25.73;;;10.90;1.00;;;;;;5032237;28;20226;-65